Time;durP1;ratioP1;P1;durP2;ratioP2;P2;SDS_P1;SDS_P2;PMS_P1;PMS_P2;Temp;Humidity;BMP_temperature;BMP_pressure;BME280_temperature;BME280_humidity;BME280_pressure;Samples;Min_cycle;Max_cycle;Signal;HPM_P1;HPM_P2
2022/07/22 00:00:07;;;;;;;20.48;18.85;;;;;;;;;;4968164;28;20202;-75
2022/07/22 00:02:37;;;;;;;22.42;20.27;;;;;;;;;;4975317;28;20217;-75
2022/07/22 00:05:06;;;;;;;21.90;19.98;;;;;;;;;;4975057;28;20249;-75
2022/07/22 00:07:35;;;;;;;22.02;20.08;;;;;;;;;;4976134;28;20724;-76
2022/07/22 00:10:04;;;;;;;24.73;22.27;;;;;;;;;;4974889;28;20209;-75
2022/07/22 00:12:32;;;;;;;23.65;21.45;;;;;;;;;;4973579;28;20217;-76
2022/07/22 00:15:01;;;;;;;23.20;21.20;;;;;;;;;;4974629;28;20201;-76
2022/07/22 00:17:29;;;;;;;23.50;21.50;;;;;;;;;;4966486;28;20301;-76
2022/07/22 00:19:59;;;;;;;23.90;21.80;;;;;;;;;;4969178;28;20205;-76
2022/07/22 00:22:28;;;;;;;23.15;21.08;;;;;;;;;;4974324;28;20228;-76
2022/07/22 00:24:56;;;;;;;23.48;21.48;;;;;;;;;;4974673;28;20230;-76
2022/07/22 00:27:25;;;;;;;22.33;20.25;;;;;;;;;;4971533;28;20225;-76
2022/07/22 00:29:54;;;;;;;22.05;20.08;;;;;;;;;;4968138;28;20651;-76
2022/07/22 00:32:23;;;;;;;21.55;19.60;;;;;;;;;;4972630;28;20209;-75
2022/07/22 00:34:51;;;;;;;20.92;19.02;;;;;;;;;;4970520;28;20213;-75
2022/07/22 00:37:21;;;;;;;20.85;18.83;;;;;;;;;;4975242;28;20232;-75
2022/07/22 00:39:50;;;;;;;19.25;17.40;;;;;;;;;;4975181;28;20213;-75
2022/07/22 00:42:18;;;;;;;18.98;16.90;;;;;;;;;;4970277;28;20209;-76
2022/07/22 00:44:51;;;;;;;16.60;15.00;;;;;;;;;;4974534;28;20280;-75
2022/07/22 00:47:20;;;;;;;16.65;15.07;;;;;;;;;;4968528;28;20257;-75
2022/07/22 00:49:49;;;;;;;15.35;13.95;;;;;;;;;;4961830;28;20210;-75
2022/07/22 00:52:17;;;;;;;13.85;12.45;;;;;;;;;;4974686;28;20210;-75
2022/07/22 00:54:47;;;;;;;13.13;11.82;;;;;;;;;;4974982;28;20198;-75
2022/07/22 00:57:15;;;;;;;12.27;11.18;;;;;;;;;;4974450;28;20226;-75
2022/07/22 00:59:44;;;;;;;13.10;11.57;;;;;;;;;;4975383;28;20737;-76
2022/07/22 01:02:12;;;;;;;12.70;11.50;;;;;;;;;;4974449;28;20205;-75
2022/07/22 01:04:41;;;;;;;12.90;10.80;;;;;;;;;;4974982;28;20648;-75
2022/07/22 01:07:10;;;;;;;11.97;10.77;;;;;;;;;;4973823;28;20221;-74
2022/07/22 01:09:38;;;;;;;12.57;9.60;;;;;;;;;;4973356;28;20210;-75
2022/07/22 01:12:08;;;;;;;10.48;9.38;;;;;;;;;;4969740;28;20237;-76
2022/07/22 01:14:37;;;;;;;10.80;9.70;;;;;;;;;;4970067;28;20651;-75
2022/07/22 01:17:06;;;;;;;10.57;8.80;;;;;;;;;;4974919;28;20591;-75
2022/07/22 01:19:36;;;;;;;9.37;8.40;;;;;;;;;;4972990;28;20210;-75
2022/07/22 01:22:06;;;;;;;9.73;8.67;;;;;;;;;;4974126;28;20217;-76
2022/07/22 01:24:35;;;;;;;9.95;7.65;;;;;;;;;;4973743;28;20225;-76
2022/07/22 01:27:04;;;;;;;8.93;7.43;;;;;;;;;;4973968;28;20720;-75
2022/07/22 01:29:32;;;;;;;8.13;7.23;;;;;;;;;;4973471;28;20210;-75
2022/07/22 01:32:01;;;;;;;8.32;6.90;;;;;;;;;;4974051;28;20213;-75
2022/07/22 01:34:29;;;;;;;8.47;6.17;;;;;;;;;;4972571;28;20224;-75
2022/07/22 01:36:57;;;;;;;8.00;6.03;;;;;;;;;;4973877;28;20693;-75
2022/07/22 01:39:27;;;;;;;5.37;4.97;;;;;;;;;;4974320;28;20209;-75
2022/07/22 01:41:56;;;;;;;5.70;5.10;;;;;;;;;;4974217;28;20209;-75
2022/07/22 01:44:24;;;;;;;6.23;5.70;;;;;;;;;;4973380;28;20222;-75
2022/07/22 01:46:53;;;;;;;7.30;6.60;;;;;;;;;;4970602;28;20237;-75
2022/07/22 01:49:22;;;;;;;7.70;7.00;;;;;;;;;;4973449;28;20225;-75
2022/07/22 01:51:50;;;;;;;7.57;6.57;;;;;;;;;;4972283;28;20237;-75
2022/07/22 01:54:19;;;;;;;7.80;7.10;;;;;;;;;;4974829;28;20249;-75
2022/07/22 01:56:49;;;;;;;6.93;6.23;;;;;;;;;;4974611;28;20697;-75
2022/07/22 01:59:17;;;;;;;6.93;6.33;;;;;;;;;;4974062;28;20222;-75
2022/07/22 02:01:45;;;;;;;7.47;6.77;;;;;;;;;;4974393;28;20257;-75
2022/07/22 02:04:14;;;;;;;6.57;5.97;;;;;;;;;;4974490;28;20222;-75
2022/07/22 02:06:43;;;;;;;7.23;5.90;;;;;;;;;;4974727;28;20230;-76
2022/07/22 02:09:11;;;;;;;6.33;5.83;;;;;;;;;;4976402;28;20426;-76
2022/07/22 02:11:40;;;;;;;5.70;5.30;;;;;;;;;;4978474;28;20562;-75
2022/07/22 02:14:09;;;;;;;5.40;4.90;;;;;;;;;;4976630;28;20568;-75
2022/07/22 02:16:38;;;;;;;5.37;4.97;;;;;;;;;;4977349;28;20280;-75
2022/07/22 02:19:06;;;;;;;7.23;5.20;;;;;;;;;;4977803;28;20676;-76
2022/07/22 02:21:35;;;;;;;5.33;4.63;;;;;;;;;;4976156;28;20210;-76
2022/07/22 02:24:03;;;;;;;8.23;5.90;;;;;;;;;;4977993;28;20205;-75
2022/07/22 02:26:32;;;;;;;6.53;5.93;;;;;;;;;;4978008;28;20241;-75
2022/07/22 02:29:00;;;;;;;6.28;5.68;;;;;;;;;;4976645;28;20206;-76
2022/07/22 02:31:30;;;;;;;6.27;5.13;;;;;;;;;;4977475;28;20213;-76
2022/07/22 02:33:59;;;;;;;7.60;5.30;;;;;;;;;;4978049;28;20280;-75
2022/07/22 02:36:27;;;;;;;5.43;5.03;;;;;;;;;;4977779;28;20584;-75
2022/07/22 02:38:57;;;;;;;6.10;4.67;;;;;;;;;;4978447;28;20197;-76
2022/07/22 02:41:26;;;;;;;4.83;4.33;;;;;;;;;;4976949;28;20206;-76
2022/07/22 02:43:55;;;;;;;8.90;5.07;;;;;;;;;;4977020;28;20260;-75
2022/07/22 02:46:24;;;;;;;7.17;5.00;;;;;;;;;;4976858;28;20230;-75
2022/07/22 02:48:54;;;;;;;6.27;5.23;;;;;;;;;;4977470;28;20300;-75
2022/07/22 02:51:23;;;;;;;5.53;5.03;;;;;;;;;;4975930;28;20268;-75
2022/07/22 02:53:51;;;;;;;8.10;5.80;;;;;;;;;;4977688;28;20722;-76
2022/07/22 02:56:20;;;;;;;6.83;5.47;;;;;;;;;;4977723;28;20234;-75
2022/07/22 02:58:51;;;;;;;6.60;4.93;;;;;;;;;;4976689;28;20209;-75
2022/07/22 03:01:21;;;;;;;8.27;4.70;;;;;;;;;;4976963;28;20659;-76
2022/07/22 03:03:49;;;;;;;6.20;4.80;;;;;;;;;;4977368;28;20202;-75
2022/07/22 03:06:20;;;;;;;6.70;4.67;;;;;;;;;;4976763;28;20233;-75
2022/07/22 03:08:49;;;;;;;4.70;3.97;;;;;;;;;;4978193;28;20213;-75
2022/07/22 03:11:17;;;;;;;5.10;4.50;;;;;;;;;;4976428;28;20237;-76
2022/07/22 03:13:46;;;;;;;7.03;4.87;;;;;;;;;;4975914;28;20217;-76
2022/07/22 03:16:14;;;;;;;9.03;5.93;;;;;;;;;;4975701;28;20222;-76
2022/07/22 03:18:43;;;;;;;7.83;4.80;;;;;;;;;;4977111;28;20230;-75
2022/07/22 03:21:11;;;;;;;8.03;4.80;;;;;;;;;;4974364;28;20225;-75
2022/07/22 03:23:41;;;;;;;5.50;4.90;;;;;;;;;;4975489;28;20659;-75
2022/07/22 03:26:09;;;;;;;5.87;4.27;;;;;;;;;;4976411;28;20285;-75
2022/07/22 03:28:38;;;;;;;5.03;4.47;;;;;;;;;;4977717;28;20260;-76
2022/07/22 03:31:06;;;;;;;6.37;4.63;;;;;;;;;;4976371;28;20209;-75
2022/07/22 03:33:34;;;;;;;6.30;4.33;;;;;;;;;;4976900;28;20212;-76
2022/07/22 03:36:03;;;;;;;6.13;4.57;;;;;;;;;;4975890;28;20257;-75
2022/07/22 03:38:32;;;;;;;6.10;4.57;;;;;;;;;;4975752;28;20206;-75
2022/07/22 03:41:01;;;;;;;6.83;4.70;;;;;;;;;;4976580;28;20198;-75
2022/07/22 03:43:30;;;;;;;8.93;4.60;;;;;;;;;;4976085;28;20210;-75
2022/07/22 03:45:59;;;;;;;6.83;4.80;;;;;;;;;;4975598;28;20229;-75
2022/07/22 03:48:28;;;;;;;8.27;4.97;;;;;;;;;;4976720;28;20744;-75
2022/07/22 03:50:58;;;;;;;5.60;4.97;;;;;;;;;;4974928;28;20205;-75
2022/07/22 03:53:26;;;;;;;7.47;5.10;;;;;;;;;;4964801;28;20206;-75
2022/07/22 03:55:54;;;;;;;5.63;4.37;;;;;;;;;;4974602;28;20625;-75
2022/07/22 03:58:26;;;;;;;9.17;4.77;;;;;;;;;;4976581;28;20609;-75
2022/07/22 04:00:55;;;;;;;5.37;4.70;;;;;;;;;;4975346;28;20206;-75
2022/07/22 04:03:23;;;;;;;6.10;4.60;;;;;;;;;;4976111;28;20206;-75
2022/07/22 04:05:52;;;;;;;6.10;4.77;;;;;;;;;;4975519;28;20295;-75
2022/07/22 04:08:20;;;;;;;7.80;4.97;;;;;;;;;;4975674;28;20718;-75
2022/07/22 04:10:48;;;;;;;7.20;4.70;;;;;;;;;;4975232;28;20643;-75
2022/07/22 04:13:17;;;;;;;7.87;4.90;;;;;;;;;;4976103;28;20210;-75
2022/07/22 04:15:47;;;;;;;8.60;5.33;;;;;;;;;;4975489;28;20198;-75
2022/07/22 04:18:17;;;;;;;8.10;5.60;;;;;;;;;;4977554;28;20709;-75
2022/07/22 04:20:46;;;;;;;7.00;5.30;;;;;;;;;;4974694;28;20214;-76
2022/07/22 04:23:15;;;;;;;7.77;5.60;;;;;;;;;;4975048;28;20198;-75
2022/07/22 04:25:49;;;;;;;8.13;6.07;;;;;;;;;;4975518;28;20693;-75
2022/07/22 04:28:17;;;;;;;6.67;5.43;;;;;;;;;;4974693;28;20213;-75
2022/07/22 04:30:47;;;;;;;7.07;5.30;;;;;;;;;;4974206;28;20256;-75
2022/07/22 04:33:16;;;;;;;7.47;4.93;;;;;;;;;;4975624;28;20243;-75
2022/07/22 04:35:44;;;;;;;8.17;5.53;;;;;;;;;;4974307;28;20233;-75
2022/07/22 04:38:12;;;;;;;7.33;5.47;;;;;;;;;;4974189;28;20209;-75
2022/07/22 04:40:41;;;;;;;8.33;5.20;;;;;;;;;;4975067;28;20217;-75
2022/07/22 04:43:09;;;;;;;8.70;5.23;;;;;;;;;;4975839;28;20625;-75
2022/07/22 04:45:38;;;;;;;5.30;4.50;;;;;;;;;;4974742;28;20233;-75
2022/07/22 04:48:08;;;;;;;8.80;5.70;;;;;;;;;;4974155;28;20241;-75
2022/07/22 04:50:37;;;;;;;6.43;4.23;;;;;;;;;;4974823;28;20209;-76
2022/07/22 04:53:05;;;;;;;6.33;3.80;;;;;;;;;;4974965;28;20205;-75
2022/07/22 04:55:36;;;;;;;5.93;3.27;;;;;;;;;;4974448;28;20240;-75
2022/07/22 04:58:04;;;;;;;9.10;3.60;;;;;;;;;;4975140;28;20228;-75
2022/07/22 05:00:33;;;;;;;5.27;3.20;;;;;;;;;;4974279;28;20256;-75
2022/07/22 05:03:01;;;;;;;5.33;2.83;;;;;;;;;;4974532;28;20209;-75
2022/07/22 05:05:31;;;;;;;7.77;3.10;;;;;;;;;;4974443;28;20205;-75
2022/07/22 05:08:00;;;;;;;5.10;2.90;;;;;;;;;;4961960;28;20248;-75
2022/07/22 05:10:28;;;;;;;6.50;3.13;;;;;;;;;;4974234;28;20261;-75
2022/07/22 05:12:56;;;;;;;6.60;3.40;;;;;;;;;;4973499;28;20206;-76
2022/07/22 05:15:25;;;;;;;7.93;3.50;;;;;;;;;;4974322;28;20217;-75
2022/07/22 05:17:53;;;;;;;6.10;4.07;;;;;;;;;;4975052;28;20591;-75
2022/07/22 05:20:22;;;;;;;7.23;4.90;;;;;;;;;;4973563;28;20659;-75
2022/07/22 05:22:52;;;;;;;9.67;5.10;;;;;;;;;;4969301;28;20213;-76
2022/07/22 05:25:20;;;;;;;10.10;5.00;;;;;;;;;;4972662;28;20198;-75
2022/07/22 05:27:51;;;;;;;9.80;5.20;;;;;;;;;;4973595;28;20233;-76
2022/07/22 05:30:19;;;;;;;5.30;4.80;;;;;;;;;;4973480;28;20209;-75
2022/07/22 05:32:51;;;;;;;7.33;5.13;;;;;;;;;;4973695;28;20202;-75
2022/07/22 05:35:20;;;;;;;8.03;5.27;;;;;;;;;;4972820;28;20213;-75
2022/07/22 05:37:49;;;;;;;7.37;4.97;;;;;;;;;;4972714;28;20230;-75
2022/07/22 05:40:19;;;;;;;6.37;4.87;;;;;;;;;;4973972;28;20634;-75
2022/07/22 05:42:48;;;;;;;9.80;7.97;;;;;;;;;;4973283;28;20210;-75
2022/07/22 05:45:16;;;;;;;7.30;5.27;;;;;;;;;;4978879;28;20217;-75
2022/07/22 05:47:44;;;;;;;6.20;4.83;;;;;;;;;;4978903;28;20228;-75
2022/07/22 05:50:13;;;;;;;6.30;4.50;;;;;;;;;;4976489;28;20621;-75
2022/07/22 05:52:42;;;;;;;8.40;4.63;;;;;;;;;;4978603;28;20651;-75
2022/07/22 05:55:10;;;;;;;8.13;4.90;;;;;;;;;;4977718;28;20578;-75
2022/07/22 05:57:41;;;;;;;6.03;4.00;;;;;;;;;;4977848;28;20218;-75
2022/07/22 06:00:10;;;;;;;5.63;3.70;;;;;;;;;;4978382;28;20214;-75
2022/07/22 06:02:38;;;;;;;6.80;3.80;;;;;;;;;;4978386;28;20210;-75
2022/07/22 06:05:07;;;;;;;6.20;2.90;;;;;;;;;;4977966;28;20210;-75
2022/07/22 06:07:36;;;;;;;7.10;2.80;;;;;;;;;;4977422;28;20240;-75
2022/07/22 06:10:05;;;;;;;4.83;3.57;;;;;;;;;;4978280;28;20217;-75
2022/07/22 06:12:33;;;;;;;4.97;3.30;;;;;;;;;;4978462;28;20213;-75
2022/07/22 06:15:03;;;;;;;4.47;3.60;;;;;;;;;;4976009;28;20210;-75
2022/07/22 06:17:32;;;;;;;7.00;4.23;;;;;;;;;;4978661;28;20225;-75
2022/07/22 06:20:00;;;;;;;5.87;4.07;;;;;;;;;;4978144;28;20206;-75
2022/07/22 06:22:29;;;;;;;10.10;4.90;;;;;;;;;;4977410;28;20594;-75
2022/07/22 06:24:57;;;;;;;5.57;4.20;;;;;;;;;;4977438;28;20206;-75
2022/07/22 06:27:44;;;;;;;7.50;4.20;;;;;;;;;;4978370;28;20292;-75
2022/07/22 06:30:14;;;;;;;9.03;4.73;;;;;;;;;;4976391;28;20722;-75
2022/07/22 06:32:43;;;;;;;10.73;4.70;;;;;;;;;;4972111;28;20220;-75
2022/07/22 06:35:19;;;;;;;7.13;3.80;;;;;;;;;;4977480;28;20290;-75
2022/07/22 06:37:48;;;;;;;10.50;4.60;;;;;;;;;;4975904;28;20233;-75
2022/07/22 06:40:32;;;;;;;10.60;4.83;;;;;;;;;;4976136;28;20592;-75
2022/07/22 06:43:01;;;;;;;8.80;4.30;;;;;;;;;;4977737;28;20234;-75
2022/07/22 06:45:31;;;;;;;10.17;4.43;;;;;;;;;;4976242;28;20275;-75
2022/07/22 06:48:00;;;;;;;10.73;4.17;;;;;;;;;;4977748;28;20237;-75
2022/07/22 06:50:28;;;;;;;7.63;4.10;;;;;;;;;;4976951;28;20210;-76
2022/07/22 06:52:56;;;;;;;10.03;3.87;;;;;;;;;;4974937;28;20213;-75
2022/07/22 06:55:25;;;;;;;10.67;4.30;;;;;;;;;;4972920;28;20202;-75
2022/07/22 06:57:53;;;;;;;9.33;3.70;;;;;;;;;;4974494;28;20221;-75
2022/07/22 07:00:22;;;;;;;13.43;4.87;;;;;;;;;;4976498;28;20205;-75
2022/07/22 07:02:52;;;;;;;11.23;3.90;;;;;;;;;;4977665;28;20289;-75
2022/07/22 07:05:40;;;;;;;12.47;4.13;;;;;;;;;;4977182;28;20222;-75
2022/07/22 07:08:10;;;;;;;12.23;3.72;;;;;;;;;;4977270;28;20673;-73
2022/07/22 07:10:38;;;;;;;9.90;3.70;;;;;;;;;;4976866;28;20216;-72
2022/07/22 07:13:07;;;;;;;9.27;3.88;;;;;;;;;;4976460;28;20198;-73
2022/07/22 07:15:35;;;;;;;10.88;3.95;;;;;;;;;;4977183;28;20577;-72
2022/07/22 07:18:05;;;;;;;9.18;4.20;;;;;;;;;;4977215;28;20218;-73
2022/07/22 07:20:34;;;;;;;7.93;4.22;;;;;;;;;;4977742;28;20216;-73
2022/07/22 07:23:03;;;;;;;9.65;4.10;;;;;;;;;;4976143;28;20209;-73
2022/07/22 07:25:33;;;;;;;10.73;3.55;;;;;;;;;;4976800;28;20587;-73
2022/07/22 07:28:02;;;;;;;7.53;3.38;;;;;;;;;;4976926;28;20225;-73
2022/07/22 07:30:30;;;;;;;8.15;3.25;;;;;;;;;;4977205;28;20206;-73
2022/07/22 07:33:00;;;;;;;10.23;3.22;;;;;;;;;;4977560;28;20214;-73
2022/07/22 07:35:29;;;;;;;9.50;3.70;;;;;;;;;;4976700;28;20670;-73
2022/07/22 07:37:59;;;;;;;9.18;3.85;;;;;;;;;;4975807;28;20229;-73
2022/07/22 07:40:28;;;;;;;9.02;3.67;;;;;;;;;;4976749;28;20240;-73
2022/07/22 07:42:56;;;;;;;10.18;3.80;;;;;;;;;;4975428;28;20202;-74
2022/07/22 07:45:31;;;;;;;9.70;3.85;;;;;;;;;;4970283;28;20292;-73
2022/07/22 07:47:59;;;;;;;9.90;4.07;;;;;;;;;;4968507;28;20379;-74
2022/07/22 07:50:27;;;;;;;8.55;3.97;;;;;;;;;;4961377;28;20626;-74
2022/07/22 07:52:58;;;;;;;15.20;4.35;;;;;;;;;;4975963;28;20566;-73
2022/07/22 07:55:26;;;;;;;13.13;4.72;;;;;;;;;;4975592;28;20245;-74
2022/07/22 07:57:55;;;;;;;9.45;4.18;;;;;;;;;;4971768;28;20589;-74
2022/07/22 08:00:28;;;;;;;10.52;4.63;;;;;;;;;;4975080;28;20209;-74
2022/07/22 08:02:57;;;;;;;10.98;4.40;;;;;;;;;;4976118;28;20213;-74
2022/07/22 08:05:27;;;;;;;11.85;4.80;;;;;;;;;;4967633;28;20202;-73
2022/07/22 08:07:58;;;;;;;8.25;4.50;;;;;;;;;;4967386;28;20232;-74
2022/07/22 08:10:27;;;;;;;8.80;4.30;;;;;;;;;;4975173;28;20206;-74
2022/07/22 08:13:16;;;;;;;10.10;4.70;;;;;;;;;;4973227;28;20233;-74
2022/07/22 08:15:45;;;;;;;12.48;4.13;;;;;;;;;;4974823;28;20216;-74
2022/07/22 08:18:14;;;;;;;5.75;4.20;;;;;;;;;;4974648;28;20297;-74
2022/07/22 08:20:42;;;;;;;7.57;3.90;;;;;;;;;;4973440;28;20252;-74
2022/07/22 08:23:12;;;;;;;8.60;4.25;;;;;;;;;;4972547;28;20670;-74
2022/07/22 08:25:41;;;;;;;7.07;3.72;;;;;;;;;;4975500;28;20206;-74
2022/07/22 08:28:09;;;;;;;8.15;3.85;;;;;;;;;;4974684;28;20230;-74
2022/07/22 08:30:39;;;;;;;10.60;3.85;;;;;;;;;;4975823;28;20206;-74
2022/07/22 08:33:07;;;;;;;6.97;3.65;;;;;;;;;;4975597;28;20715;-74
2022/07/22 08:35:36;;;;;;;5.65;3.45;;;;;;;;;;4975795;28;20202;-74
2022/07/22 08:38:04;;;;;;;9.40;3.60;;;;;;;;;;4975748;28;20226;-74
2022/07/22 08:40:34;;;;;;;7.57;3.70;;;;;;;;;;4976424;28;20241;-74
2022/07/22 08:43:03;;;;;;;7.18;4.03;;;;;;;;;;4974194;28;20205;-74
2022/07/22 08:45:32;;;;;;;7.40;3.85;;;;;;;;;;4974962;28;20632;-74
2022/07/22 08:48:02;;;;;;;12.98;4.55;;;;;;;;;;4973384;28;20237;-73
2022/07/22 08:50:31;;;;;;;9.70;3.97;;;;;;;;;;4974563;28;20671;-74
2022/07/22 08:53:00;;;;;;;11.50;4.38;;;;;;;;;;4974824;28;20206;-74
2022/07/22 08:55:28;;;;;;;6.22;4.00;;;;;;;;;;4974596;28;20220;-74
2022/07/22 08:57:58;;;;;;;9.43;3.88;;;;;;;;;;4975457;28;20235;-74
2022/07/22 09:00:26;;;;;;;8.13;3.97;;;;;;;;;;4975242;28;20201;-74
2022/07/22 09:02:55;;;;;;;7.07;3.85;;;;;;;;;;4975044;28;20213;-74
2022/07/22 09:05:23;;;;;;;8.10;4.47;;;;;;;;;;4974341;28;20257;-74
2022/07/22 09:08:11;;;;;;;8.07;3.20;;;;;;;;;;4976002;28;20218;-74
2022/07/22 09:10:40;;;;;;;7.90;3.55;;;;;;;;;;4971235;28;20224;-74
2022/07/22 09:13:11;;;;;;;8.07;3.88;;;;;;;;;;4973615;28;20293;-74
2022/07/22 09:15:41;;;;;;;8.48;3.70;;;;;;;;;;4976407;28;20290;-75
2022/07/22 09:18:09;;;;;;;7.20;3.25;;;;;;;;;;4973441;28;20213;-75
2022/07/22 09:20:38;;;;;;;8.27;3.58;;;;;;;;;;4974291;28;20645;-75
2022/07/22 09:23:11;;;;;;;7.30;3.78;;;;;;;;;;4974993;28;20741;-75
2022/07/22 09:25:41;;;;;;;6.70;3.58;;;;;;;;;;4975079;28;20208;-75
2022/07/22 09:28:21;;;;;;;7.47;2.92;;;;;;;;;;4973293;28;20704;-75
2022/07/22 09:30:54;;;;;;;6.78;3.13;;;;;;;;;;4974883;28;20205;-74
2022/07/22 09:33:24;;;;;;;7.28;3.08;;;;;;;;;;4972977;28;20212;-75
2022/07/22 09:35:54;;;;;;;11.13;3.60;;;;;;;;;;4970488;28;20214;-73
2022/07/22 09:38:28;;;;;;;9.65;3.50;;;;;;;;;;4974423;28;20202;-73
2022/07/22 09:40:57;;;;;;;6.72;3.03;;;;;;;;;;4974306;28;20650;-73
2022/07/22 09:43:32;;;;;;;8.13;3.22;;;;;;;;;;4972639;28;20253;-73
2022/07/22 09:46:01;;;;;;;6.53;3.35;;;;;;;;;;4973171;28;20201;-75
2022/07/22 09:48:29;;;;;;;7.75;3.40;;;;;;;;;;4972322;28;20629;-74
2022/07/22 09:50:58;;;;;;;4.88;2.90;;;;;;;;;;4973099;28;20209;-73
2022/07/22 09:53:28;;;;;;;7.05;3.00;;;;;;;;;;4974501;28;20662;-74
2022/07/22 09:55:58;;;;;;;6.80;2.70;;;;;;;;;;4969852;28;20201;-75
2022/07/22 09:58:28;;;;;;;5.82;2.72;;;;;;;;;;4969299;28;20207;-75
2022/07/22 10:01:00;;;;;;;7.20;2.70;;;;;;;;;;4964246;28;20545;-74
2022/07/22 10:03:40;;;;;;;5.68;2.75;;;;;;;;;;4974707;28;20241;-74
2022/07/22 10:06:09;;;;;;;4.50;2.53;;;;;;;;;;4973021;28;20276;-73
2022/07/22 10:08:38;;;;;;;6.47;2.58;;;;;;;;;;4973415;28;20229;-73
2022/07/22 10:11:08;;;;;;;6.35;2.78;;;;;;;;;;4962595;28;20205;-73
2022/07/22 10:13:40;;;;;;;5.88;2.55;;;;;;;;;;4966424;28;20663;-73
2022/07/22 10:16:09;;;;;;;6.80;3.17;;;;;;;;;;4961641;28;20229;-73
2022/07/22 10:18:38;;;;;;;6.00;2.60;;;;;;;;;;4963859;28;20214;-73
2022/07/22 10:21:08;;;;;;;5.00;2.63;;;;;;;;;;4971033;28;20214;-73
2022/07/22 10:23:37;;;;;;;6.45;2.80;;;;;;;;;;4961642;28;20202;-73
2022/07/22 10:26:05;;;;;;;6.60;2.60;;;;;;;;;;4963342;28;20309;-74
2022/07/22 10:28:35;;;;;;;3.33;2.78;;;;;;;;;;4962407;28;20227;-73
2022/07/22 10:31:24;;;;;;;6.05;3.00;;;;;;;;;;4969212;28;20199;-74
2022/07/22 10:33:56;;;;;;;6.28;2.85;;;;;;;;;;4956048;28;20217;-74
2022/07/22 10:36:33;;;;;;;7.22;3.20;;;;;;;;;;4976510;28;20308;-73
2022/07/22 10:39:08;;;;;;;4.47;2.55;;;;;;;;;;4977603;28;20197;-74
2022/07/22 10:41:37;;;;;;;4.65;3.08;;;;;;;;;;4977043;28;20263;-74
2022/07/22 10:44:06;;;;;;;7.63;2.80;;;;;;;;;;4976906;28;20210;-74
2022/07/22 10:47:02;;;;;;;6.25;2.83;;;;;;;;;;4976768;28;20328;-74
2022/07/22 10:49:32;;;;;;;4.03;2.97;;;;;;;;;;4941679;29;20226;-74
2022/07/22 10:52:10;;;;;;;9.00;3.08;;;;;;;;;;4973562;28;20201;-74
2022/07/22 10:55:03;;;;;;;5.43;2.90;;;;;;;;;;4974682;28;20581;-73
2022/07/22 10:57:32;;;;;;;3.95;2.88;;;;;;;;;;4962577;28;20221;-74
2022/07/22 11:00:06;;;;;;;5.10;3.15;;;;;;;;;;4978720;28;20730;-74
2022/07/22 11:02:35;;;;;;;4.63;3.50;;;;;;;;;;4976326;28;20210;-73
2022/07/22 11:05:05;;;;;;;5.75;3.50;;;;;;;;;;4965702;28;20203;-73
2022/07/22 11:07:34;;;;;;;5.53;3.50;;;;;;;;;;4970975;28;20221;-73
2022/07/22 11:10:13;;;;;;;7.03;3.72;;;;;;;;;;4967241;28;20683;-74
2022/07/22 11:12:47;;;;;;;6.63;3.53;;;;;;;;;;4973376;28;20205;-73
2022/07/22 11:15:16;;;;;;;5.20;3.10;;;;;;;;;;4970938;28;20251;-73
2022/07/22 11:17:44;;;;;;;5.65;3.35;;;;;;;;;;4970193;28;20236;-73
2022/07/22 11:20:15;;;;;;;5.32;3.20;;;;;;;;;;4959778;28;20250;-74
2022/07/22 11:22:48;;;;;;;7.30;3.15;;;;;;;;;;4975360;28;20222;-74
2022/07/22 11:25:17;;;;;;;5.43;3.17;;;;;;;;;;4963015;28;20222;-73
2022/07/22 11:27:52;;;;;;;9.05;3.60;;;;;;;;;;4973507;28;20224;-74
2022/07/22 11:30:20;;;;;;;6.28;3.30;;;;;;;;;;4967283;28;20217;-73
2022/07/22 11:32:49;;;;;;;8.32;3.30;;;;;;;;;;4973331;28;20564;-74
2022/07/22 11:35:19;;;;;;;6.28;3.38;;;;;;;;;;4974609;28;20280;-74
2022/07/22 11:37:56;;;;;;;8.85;3.78;;;;;;;;;;4970605;28;20265;-74
2022/07/22 11:40:25;;;;;;;6.57;3.55;;;;;;;;;;4970087;28;20205;-74
2022/07/22 11:43:02;;;;;;;4.20;3.53;;;;;;;;;;4972468;28;20206;-74
2022/07/22 11:45:31;;;;;;;8.43;4.32;;;;;;;;;;4966584;28;20663;-73
2022/07/22 11:48:09;;;;;;;7.35;3.80;;;;;;;;;;4967510;28;20228;-73
2022/07/22 11:50:39;;;;;;;6.07;3.85;;;;;;;;;;4969852;28;20632;-73
2022/07/22 11:53:08;;;;;;;7.65;4.03;;;;;;;;;;4964209;28;20202;-73
2022/07/22 11:55:37;;;;;;;8.30;4.20;;;;;;;;;;4972551;28;20229;-74
2022/07/22 11:58:05;;;;;;;5.32;3.83;;;;;;;;;;4973665;28;20229;-74
2022/07/22 12:00:34;;;;;;;4.60;3.95;;;;;;;;;;4972185;28;20189;-74
2022/07/22 12:03:02;;;;;;;6.25;4.07;;;;;;;;;;4973333;28;20220;-74
2022/07/22 12:05:31;;;;;;;6.47;4.50;;;;;;;;;;4975833;28;20233;-74
2022/07/22 12:08:03;;;;;;;5.03;4.18;;;;;;;;;;4976804;28;20230;-73
2022/07/22 12:10:32;;;;;;;7.32;4.53;;;;;;;;;;4977299;28;20742;-73
2022/07/22 12:13:00;;;;;;;6.00;4.40;;;;;;;;;;4971357;28;20662;-73
2022/07/22 12:15:31;;;;;;;7.18;4.47;;;;;;;;;;4967749;28;20699;-74
2022/07/22 12:18:21;;;;;;;5.88;4.43;;;;;;;;;;4967621;28;20596;-73
2022/07/22 12:20:50;;;;;;;5.15;4.13;;;;;;;;;;4974616;28;20574;-73
2022/07/22 12:23:23;;;;;;;6.78;4.05;;;;;;;;;;4975598;28;20299;-74
2022/07/22 12:25:56;;;;;;;7.30;4.07;;;;;;;;;;4975191;28;20590;-73
2022/07/22 12:28:25;;;;;;;8.35;4.18;;;;;;;;;;4975617;28;20210;-74
2022/07/22 12:30:54;;;;;;;8.30;3.97;;;;;;;;;;4975054;28;20237;-74
2022/07/22 12:33:24;;;;;;;5.10;4.00;;;;;;;;;;4974476;28;20209;-74
2022/07/22 12:36:03;;;;;;;5.72;4.15;;;;;;;;;;4973161;28;20201;-73
2022/07/22 12:38:33;;;;;;;6.80;3.55;;;;;;;;;;4971096;28;20209;-74
2022/07/22 12:41:21;;;;;;;5.60;3.30;;;;;;;;;;4973019;28;20289;-74
2022/07/22 12:43:51;;;;;;;6.55;3.45;;;;;;;;;;4972698;28;20212;-74
2022/07/22 12:46:20;;;;;;;5.38;3.33;;;;;;;;;;4973051;28;20244;-74
2022/07/22 12:48:52;;;;;;;12.27;3.60;;;;;;;;;;4973499;28;20293;-74
2022/07/22 12:51:21;;;;;;;4.90;3.17;;;;;;;;;;4974069;28;20253;-74
2022/07/22 12:53:53;;;;;;;7.28;3.28;;;;;;;;;;4975252;28;20210;-74
2022/07/22 12:56:22;;;;;;;12.40;3.70;;;;;;;;;;4972728;28;20699;-76
2022/07/22 12:58:51;;;;;;;5.28;3.20;;;;;;;;;;4976254;28;20215;-76
2022/07/22 13:01:19;;;;;;;6.75;3.30;;;;;;;;;;4975436;28;20278;-76
2022/07/22 13:03:48;;;;;;;6.57;3.28;;;;;;;;;;4975572;28;20735;-76
2022/07/22 13:06:16;;;;;;;8.57;3.63;;;;;;;;;;4975479;28;20314;-76
2022/07/22 13:08:45;;;;;;;5.10;3.80;;;;;;;;;;4973955;28;20213;-76
2022/07/22 13:11:15;;;;;;;8.70;3.80;;;;;;;;;;4973482;28;20249;-76
2022/07/22 13:13:45;;;;;;;6.93;3.40;;;;;;;;;;4973316;28;20273;-76
2022/07/22 13:16:14;;;;;;;7.15;3.65;;;;;;;;;;4974101;28;20292;-76
2022/07/22 13:18:43;;;;;;;5.68;3.58;;;;;;;;;;4974322;28;20202;-76
2022/07/22 13:21:11;;;;;;;5.93;3.50;;;;;;;;;;4973473;28;20216;-77
2022/07/22 13:23:40;;;;;;;7.20;3.80;;;;;;;;;;4973348;28;20201;-76
2022/07/22 13:26:08;;;;;;;9.07;3.78;;;;;;;;;;4973654;28;20252;-76
2022/07/22 13:28:38;;;;;;;8.48;4.25;;;;;;;;;;4974025;28;20633;-76
2022/07/22 13:31:06;;;;;;;9.00;3.85;;;;;;;;;;4973455;28;20280;-76
2022/07/22 13:33:35;;;;;;;6.15;3.53;;;;;;;;;;4973729;28;20218;-77
2022/07/22 13:36:04;;;;;;;7.60;4.10;;;;;;;;;;4973876;28;20741;-76
2022/07/22 13:38:33;;;;;;;6.00;4.30;;;;;;;;;;4973966;28;20213;-76
2022/07/22 13:41:01;;;;;;;8.15;4.50;;;;;;;;;;4973728;28;20221;-77
2022/07/22 13:43:30;;;;;;;9.43;4.18;;;;;;;;;;4973398;28;20800;-77
2022/07/22 13:46:00;;;;;;;6.80;4.25;;;;;;;;;;4973142;28;20209;-76
2022/07/22 13:48:28;;;;;;;6.75;3.90;;;;;;;;;;4973327;28;20655;-76
2022/07/22 13:50:57;;;;;;;8.18;4.07;;;;;;;;;;4973207;28;20931;-76
2022/07/22 13:53:25;;;;;;;7.20;4.10;;;;;;;;;;4973712;28;20668;-76
2022/07/22 13:55:53;;;;;;;5.75;3.90;;;;;;;;;;4973407;28;20260;-76
2022/07/22 13:58:22;;;;;;;5.55;4.20;;;;;;;;;;4973910;28;20635;-76
2022/07/22 14:00:50;;;;;;;6.13;3.60;;;;;;;;;;4973328;28;20210;-76
2022/07/22 14:03:20;;;;;;;6.85;4.35;;;;;;;;;;4973352;28;20693;-76
2022/07/22 14:05:49;;;;;;;5.15;3.90;;;;;;;;;;4976363;28;20685;-76
2022/07/22 14:08:17;;;;;;;10.63;4.28;;;;;;;;;;4977045;28;20209;-76
2022/07/22 14:10:45;;;;;;;7.68;4.25;;;;;;;;;;4977009;28;20225;-76
2022/07/22 14:13:14;;;;;;;6.10;3.95;;;;;;;;;;4976982;28;20206;-76
2022/07/22 14:15:42;;;;;;;5.90;3.80;;;;;;;;;;4977314;28;20209;-76
2022/07/22 14:18:12;;;;;;;4.75;3.80;;;;;;;;;;4977341;28;20214;-76
2022/07/22 14:20:42;;;;;;;6.35;3.70;;;;;;;;;;4978109;28;20213;-76
2022/07/22 14:23:10;;;;;;;6.15;3.83;;;;;;;;;;4978314;28;20253;-76
2022/07/22 14:25:39;;;;;;;5.68;4.45;;;;;;;;;;4978701;28;20228;-77
2022/07/22 14:28:08;;;;;;;7.43;4.10;;;;;;;;;;4978045;28;20230;-76
2022/07/22 14:30:57;;;;;;;6.70;4.30;;;;;;;;;;4978329;28;20273;-76
2022/07/22 14:33:25;;;;;;;5.80;4.20;;;;;;;;;;4977718;28;20220;-76
2022/07/22 14:35:55;;;;;;;4.43;4.03;;;;;;;;;;4977725;28;20213;-76
2022/07/22 14:38:24;;;;;;;8.75;4.82;;;;;;;;;;4978572;28;20206;-77
2022/07/22 14:40:52;;;;;;;6.53;4.68;;;;;;;;;;4978371;28;20212;-76
2022/07/22 14:43:21;;;;;;;7.07;4.75;;;;;;;;;;4978437;28;20264;-76
2022/07/22 14:46:09;;;;;;;8.50;4.80;;;;;;;;;;4977974;28;20269;-76
2022/07/22 14:48:38;;;;;;;8.43;5.00;;;;;;;;;;4978161;28;20205;-76
2022/07/22 14:51:08;;;;;;;7.15;4.80;;;;;;;;;;4977597;28;20232;-76
2022/07/22 14:53:37;;;;;;;6.05;4.63;;;;;;;;;;4978279;28;20656;-76
2022/07/22 14:56:05;;;;;;;6.30;5.15;;;;;;;;;;4977880;28;20253;-77